^^
Datos históricos de la estación: Murcia-Puente Tocinos
Diario Informe para Octubre 17, 2020 Unidades:  Ambas    Ingés   Métrico
Diario Semanal Mensual Anual
  Máxima: Mínima: Promedio:
Temperatura: 59.7 °F /  15.4 °C 50.9 °F /  10.5 °C 55 °F /  12.8 °C
Punto de rocio: 47.7 °F /  8.7 °C 35.2 °F /  1.8 °C 42.4 °F /  5.8 °C
Humedad: 73% 46% 63%
Velocidad viento: 5.4mph /  8.7km/h - 3.4mph /  5.5km/h
Racha viento: 11mph /  17.7km/h - -
Viento- - Sur
Presión: 30.1 in /  1017.5 hPa 30 in /  1015.7 hPa -
Precipitación: 0 in /  0.0 mm    
 
 
Tabla de datos para Octubre 17, 2020
Hora Temperatura Punto de rocio Presión Viento Velocidad viento Racha viento Humedad Intensidad lluvia(por hora) Nubes
00:04 59.7 °F /  15.4 °C 46 °F /  7.8 °C 30in /  1016.8hPa Este 1.9mph /  3km/h 4.6mph /  7.4km/h 60.6% 0in /  0.0mm
00:09 59.7 °F /  15.4 °C 45.3 °F /  7.4 °C 30in /  1016.8hPa Este 2.4mph /  3.9km/h 5.9mph /  9.5km/h 58.9% 0in /  0.0mm
00:14 59.5 °F /  15.3 °C 45 °F /  7.2 °C 30in /  1016.7hPa ESE 2.5mph /  4km/h 6mph /  9.7km/h 58.8% 0in /  0.0mm
00:19 59.2 °F /  15.1 °C 45.5 °F /  7.5 °C 30in /  1016.7hPa SE 3.6mph /  5.8km/h 5mph /  8km/h 60.4% 0in /  0.0mm
00:24 58.8 °F /  14.9 °C 45.5 °F /  7.5 °C 30in /  1016.8hPa SE 3.5mph /  5.6km/h 5mph /  8km/h 61.1% 0in /  0.0mm
00:29 58.8 °F /  14.9 °C 45.9 °F /  7.7 °C 30in /  1016.8hPa SE 2.4mph /  3.9km/h 4mph /  6.4km/h 62% 0in /  0.0mm
00:34 59 °F /  15 °C 45.9 °F /  7.7 °C 30in /  1016.8hPa SE 2.4mph /  3.8km/h 3.5mph /  5.6km/h 62% 0in /  0.0mm
00:39 59 °F /  15 °C 45.7 °F /  7.6 °C 30in /  1016.9hPa SE 1.8mph /  2.9km/h 3mph /  4.8km/h 61% 0in /  0.0mm
00:44 59 °F /  15 °C 45.9 °F /  7.7 °C 30in /  1016.9hPa SE 1.7mph /  2.8km/h 3mph /  4.8km/h 61.7% 0in /  0.0mm
00:49 59.2 °F /  15.1 °C 46 °F /  7.8 °C 30in /  1016.9hPa SE 1.4mph /  2.2km/h 3.6mph /  5.8km/h 62% 0in /  0.0mm
00:54 59.2 °F /  15.1 °C 46.6 °F /  8.1 °C 30in /  1016.9hPa SSO 1.5mph /  2.4km/h 4.7mph /  7.6km/h 63.1% 0in /  0.0mm
00:59 59.4 °F /  15.2 °C 47.5 °F /  8.6 °C 30in /  1016.9hPa OSO 2.4mph /  3.9km/h 5mph /  8km/h 64.7% 0in /  0.0mm
01:04 59.2 °F /  15.1 °C 47.1 °F /  8.4 °C 30in /  1016.9hPa Oeste 2.4mph /  3.9km/h 5mph /  8km/h 64.2% 0in /  0.0mm
01:09 59 °F /  15 °C 47.7 °F /  8.7 °C 30in /  1016.9hPa Oeste 2.4mph /  3.9km/h 5mph /  8km/h 65.8% 0in /  0.0mm
01:14 58.6 °F /  14.8 °C 47.5 °F /  8.6 °C 30in /  1016.7hPa Oeste 2.3mph /  3.7km/h 5mph /  8km/h 66% 0in /  0.0mm
01:19 58.5 °F /  14.7 °C 46.9 °F /  8.3 °C 30in /  1016.7hPa NNE 1.4mph /  2.3km/h 3.6mph /  5.8km/h 65.5% 0in /  0.0mm
01:24 58.1 °F /  14.5 °C 46.4 °F /  8 °C 30in /  1016.7hPa NE 1.5mph /  2.4km/h 4mph /  6.4km/h 65% 0in /  0.0mm
01:29 57.7 °F /  14.3 °C 45.7 °F /  7.6 °C 30in /  1016.7hPa NE 2mph /  3.2km/h 4mph /  6.4km/h 64% 0in /  0.0mm
01:34 57.6 °F /  14.2 °C 45.5 °F /  7.5 °C 30in /  1016.7hPa ENE 2mph /  3.2km/h 4.7mph /  7.6km/h 64% 0in /  0.0mm
01:39 57.4 °F /  14.1 °C 45.3 °F /  7.4 °C 30in /  1016.7hPa ESE 2mph /  3.2km/h 5mph /  8km/h 64% 0in /  0.0mm
01:44 57.4 °F /  14.1 °C 45.7 °F /  7.6 °C 30in /  1016.6hPa SE 2.1mph /  3.4km/h 5.2mph /  8.4km/h 65% 0in /  0.0mm
01:49 57.6 °F /  14.2 °C 46 °F /  7.8 °C 30in /  1016.6hPa Sur 2.9mph /  4.7km/h 5mph /  8km/h 65.3% 0in /  0.0mm
01:54 57.6 °F /  14.2 °C 46.2 °F /  7.9 °C 30in /  1016.6hPa Sur 2.9mph /  4.7km/h 5.4mph /  8.7km/h 66% 0in /  0.0mm
01:59 57.6 °F /  14.2 °C 46.4 °F /  8 °C 30in /  1016.6hPa Sur 3.1mph /  5km/h 6mph /  9.7km/h 66% 0in /  0.0mm
02:04 57.7 °F /  14.3 °C 46.4 °F /  8 °C 30in /  1016.6hPa Sur 3.2mph /  5.1km/h 6mph /  9.7km/h 66% 0in /  0.0mm
02:09 57.7 °F /  14.3 °C 46.6 °F /  8.1 °C 30in /  1016.6hPa SSO 3.6mph /  5.8km/h 6.9mph /  11.1km/h 66% 0in /  0.0mm
02:14 57.7 °F /  14.3 °C 46.6 °F /  8.1 °C 30in /  1016.5hPa SSO 3.7mph /  5.9km/h 5.9mph /  9.5km/h 66% 0in /  0.0mm
02:19 57.7 °F /  14.3 °C 46.6 °F /  8.1 °C 30in /  1016.5hPa SSO 4mph /  6.4km/h 6mph /  9.7km/h 66% 0in /  0.0mm
02:24 57.7 °F /  14.3 °C 46.6 °F /  8.1 °C 30in /  1016.5hPa Sur 3.9mph /  6.3km/h 5.2mph /  8.4km/h 66% 0in /  0.0mm
02:29 57.7 °F /  14.3 °C 46.6 °F /  8.1 °C 30in /  1016.4hPa SSE 3.1mph /  5km/h 5.2mph /  8.4km/h 66% 0in /  0.0mm
02:34 57.6 °F /  14.2 °C 46.2 °F /  7.9 °C 30in /  1016.4hPa SSE 3.2mph /  5.2km/h 6.9mph /  11.1km/h 66% 0in /  0.0mm
02:39 57.4 °F /  14.1 °C 46 °F /  7.8 °C 30in /  1016.4hPa Sur 4mph /  6.4km/h 7.4mph /  11.9km/h 66% 0in /  0.0mm
02:44 57 °F /  13.9 °C 46.2 °F /  7.9 °C 30in /  1016.2hPa SSO 4.1mph /  6.6km/h 7mph /  11.3km/h 67% 0in /  0.0mm
02:49 56.8 °F /  13.8 °C 46 °F /  7.8 °C 30in /  1016.2hPa SO 4.7mph /  7.6km/h 7mph /  11.3km/h 67% 0in /  0.0mm
02:54 56.8 °F /  13.8 °C 46 °F /  7.8 °C 30in /  1016.2hPa SSO 4.7mph /  7.5km/h 6mph /  9.7km/h 67% 0in /  0.0mm
02:59 56.8 °F /  13.8 °C 46 °F /  7.8 °C 30in /  1016.2hPa SSO 4mph /  6.5km/h 6mph /  9.7km/h 67% 0in /  0.0mm
03:04 56.7 °F /  13.7 °C 45.9 °F /  7.7 °C 30in /  1016.2hPa Sur 3.9mph /  6.3km/h 6.4mph /  10.3km/h 67% 0in /  0.0mm
03:09 56.7 °F /  13.7 °C 45.9 °F /  7.7 °C 30in /  1016.2hPa Sur 3.1mph /  5km/h 7mph /  11.3km/h 67% 0in /  0.0mm
03:14 56.7 °F /  13.7 °C 45.7 °F /  7.6 °C 30in /  1016.1hPa SSO 3.2mph /  5.2km/h 7mph /  11.3km/h 66.8% 0in /  0.0mm
03:19 56.5 °F /  13.6 °C 45.3 °F /  7.4 °C 30in /  1016.1hPa SSO 4.3mph /  6.9km/h 7mph /  11.3km/h 66.2% 0in /  0.0mm
03:24 56.5 °F /  13.6 °C 45.5 °F /  7.5 °C 30in /  1016.1hPa SSO 4.2mph /  6.7km/h 6mph /  9.7km/h 66.6% 0in /  0.0mm
03:29 56.5 °F /  13.6 °C 45.3 °F /  7.4 °C 30in /  1016.1hPa SO 3.1mph /  5km/h 5mph /  8km/h 66% 0in /  0.0mm
03:34 56.3 °F /  13.5 °C 45.1 °F /  7.3 °C 30in /  1016.1hPa SO 3mph /  4.9km/h 5mph /  8km/h 66% 0in /  0.0mm
03:39 56.3 °F /  13.5 °C 45.1 °F /  7.3 °C 30in /  1016.1hPa SO 2.4mph /  3.9km/h 5mph /  8km/h 66% 0in /  0.0mm
03:44 56.1 °F /  13.4 °C 45 °F /  7.2 °C 30in /  1016.0hPa SO 2.4mph /  3.8km/h 3.6mph /  5.8km/h 66% 0in /  0.0mm
03:49 56.1 °F /  13.4 °C 44.8 °F /  7.1 °C 30in /  1016.0hPa SO 2mph /  3.2km/h 4.6mph /  7.4km/h 66% 0in /  0.0mm
03:54 55.9 °F /  13.3 °C 44.8 °F /  7.1 °C 30in /  1016.0hPa SO 2.1mph /  3.3km/h 5mph /  8km/h 66% 0in /  0.0mm
03:59 55.9 °F /  13.3 °C 44.8 °F /  7.1 °C 30in /  1016.0hPa Sur 2.4mph /  3.9km/h 5.2mph /  8.4km/h 66% 0in /  0.0mm
04:04 55.8 °F /  13.2 °C 44.6 °F /  7 °C 30in /  1016.0hPa SSE 2.5mph /  4.1km/h 5.8mph /  9.3km/h 66% 0in /  0.0mm
04:09 55.6 °F /  13.1 °C 44.4 °F /  6.9 °C 30in /  1016.0hPa SSE 3.6mph /  5.8km/h 6.9mph /  11.1km/h 66% 0in /  0.0mm
04:14 55.2 °F /  12.9 °C 44.1 °F /  6.7 °C 30in /  1015.9hPa Sur 3.7mph /  5.9km/h 7mph /  11.3km/h 66% 0in /  0.0mm
04:19 55 °F /  12.8 °C 43.9 °F /  6.6 °C 30in /  1015.9hPa Sur 4.3mph /  6.9km/h 7mph /  11.3km/h 66% 0in /  0.0mm
04:24 55 °F /  12.8 °C 43.9 °F /  6.6 °C 30in /  1015.9hPa SSO 4.3mph /  6.9km/h 6.2mph /  10km/h 66% 0in /  0.0mm
04:29 55 °F /  12.8 °C 43.9 °F /  6.6 °C 30in /  1015.7hPa SO 4mph /  6.5km/h 6.9mph /  11.1km/h 66% 0in /  0.0mm
04:34 55.2 °F /  12.9 °C 44.1 °F /  6.7 °C 30in /  1015.7hPa SO 4mph /  6.5km/h 7mph /  11.3km/h 65.9% 0in /  0.0mm
04:39 55.2 °F /  12.9 °C 43.7 °F /  6.5 °C 30in /  1015.9hPa SO 4mph /  6.5km/h 7mph /  11.3km/h 65% 0in /  0.0mm
04:44 55.2 °F /  12.9 °C 43.7 °F /  6.5 °C 30in /  1015.9hPa SSO 4mph /  6.5km/h 7mph /  11.3km/h 65% 0in /  0.0mm
04:49 55.2 °F /  12.9 °C 43.7 °F /  6.5 °C 30in /  1015.9hPa SSO 4mph /  6.5km/h 6.9mph /  11.1km/h 65% 0in /  0.0mm
04:54 55.2 °F /  12.9 °C 43.7 °F /  6.5 °C 30in /  1015.9hPa Sur 4mph /  6.4km/h 7mph /  11.3km/h 65% 0in /  0.0mm
04:59 55.2 °F /  12.9 °C 43.7 °F /  6.5 °C 30in /  1015.9hPa Sur 3.6mph /  5.8km/h 5.4mph /  8.7km/h 65% 0in /  0.0mm
05:04 55.2 °F /  12.9 °C 43.7 °F /  6.5 °C 30in /  1015.9hPa SSO 3.5mph /  5.6km/h 6mph /  9.7km/h 65% 0in /  0.0mm
05:09 55.2 °F /  12.9 °C 43.7 °F /  6.5 °C 30in /  1015.9hPa SO 2.9mph /  4.7km/h 5mph /  8km/h 65% 0in /  0.0mm
05:14 55.2 °F /  12.9 °C 43.7 °F /  6.5 °C 30in /  1015.9hPa SO 2.8mph /  4.5km/h 5mph /  8km/h 65% 0in /  0.0mm
05:19 55 °F /  12.8 °C 43.5 °F /  6.4 °C 30in /  1015.9hPa SO 2mph /  3.2km/h 4.6mph /  7.4km/h 65% 0in /  0.0mm
05:24 55 °F /  12.8 °C 43.5 °F /  6.4 °C 30in /  1015.9hPa SO 2.1mph /  3.3km/h 5mph /  8km/h 65% 0in /  0.0mm
05:29 54.9 °F /  12.7 °C 43.3 °F /  6.3 °C 30in /  1015.9hPa SO 2.4mph /  3.9km/h 5mph /  8km/h 65% 0in /  0.0mm
05:34 54.9 °F /  12.7 °C 43.3 °F /  6.3 °C 30in /  1015.9hPa SO 2.4mph /  3.9km/h 4.6mph /  7.4km/h 65% 0in /  0.0mm
05:39 54.7 °F /  12.6 °C 43.2 °F /  6.2 °C 30in /  1015.9hPa SO 2.4mph /  3.9km/h 4.6mph /  7.4km/h 65% 0in /  0.0mm
05:44 54.7 °F /  12.6 °C 43.2 °F /  6.2 °C 30in /  1015.9hPa SO 2.4mph /  3.9km/h 5mph /  8km/h 65% 0in /  0.0mm
05:49 54.5 °F /  12.5 °C 43 °F /  6.1 °C 30in /  1015.9hPa SO 2.4mph /  3.9km/h 5mph /  8km/h 65% 0in /  0.0mm
05:54 54.3 °F /  12.4 °C 42.6 °F /  5.9 °C 30in /  1015.9hPa SO 2.4mph /  3.9km/h 5mph /  8km/h 64.5% 0in /  0.0mm
05:59 54.1 °F /  12.3 °C 42.1 °F /  5.6 °C 30in /  1015.9hPa SSO 2.9mph /  4.7km/h 5mph /  8km/h 63.7% 0in /  0.0mm
06:04 54.1 °F /  12.3 °C 42.6 °F /  5.9 °C 30in /  1015.9hPa SSE 2.9mph /  4.7km/h 5.2mph /  8.4km/h 64.8% 0in /  0.0mm
06:09 53.8 °F /  12.1 °C 43.5 °F /  6.4 °C 30in /  1015.9hPa SE 2.9mph /  4.7km/h 5.4mph /  8.7km/h 67.9% 0in /  0.0mm
06:14 53.1 °F /  11.7 °C 43.3 °F /  6.3 °C 30in /  1015.9hPa SE 3mph /  4.8km/h 6.2mph /  10km/h 69.5% 0in /  0.0mm
06:19 52.3 °F /  11.3 °C 43.3 °F /  6.3 °C 30in /  1015.9hPa SSE 3.6mph /  5.8km/h 6mph /  9.7km/h 71.4% 0in /  0.0mm
06:24 52.2 °F /  11.2 °C 43.5 °F /  6.4 °C 30in /  1016.0hPa SSE 3.5mph /  5.7km/h 5mph /  8km/h 72.5% 0in /  0.0mm
06:29 52 °F /  11.1 °C 43.5 °F /  6.4 °C 30in /  1016.0hPa SSE 3.1mph /  5km/h 5mph /  8km/h 73% 0in /  0.0mm
06:34 52 °F /  11.1 °C 43.3 °F /  6.3 °C 30in /  1016.0hPa SSE 3mph /  4.9km/h 5mph /  8km/h 72.5% 0in /  0.0mm
06:39 52 °F /  11.1 °C 43.2 °F /  6.2 °C 30in /  1016.0hPa SE 2.9mph /  4.7km/h 5mph /  8km/h 71.9% 0in /  0.0mm
06:44 52.2 °F /  11.2 °C 43.3 °F /  6.3 °C 30in /  1016.0hPa SE 2.9mph /  4.6km/h 5mph /  8km/h 72% 0in /  0.0mm
06:49 52.2 °F /  11.2 °C 43.3 °F /  6.3 °C 30in /  1016.0hPa SSE 2.4mph /  3.9km/h 5mph /  8km/h 71.8% 0in /  0.0mm
06:54 52 °F /  11.1 °C 43.2 °F /  6.2 °C 30in /  1016.1hPa SSE 2.5mph /  4km/h 5mph /  8km/h 72% 0in /  0.0mm
06:59 52 °F /  11.1 °C 43.2 °F /  6.2 °C 30in /  1016.1hPa SSE 3.1mph /  5km/h 5.2mph /  8.4km/h 72% 0in /  0.0mm
07:04 52 °F /  11.1 °C 43.2 °F /  6.2 °C 30in /  1016.1hPa Sur 3.1mph /  5km/h 5.2mph /  8.4km/h 71.6% 0in /  0.0mm
07:09 51.8 °F /  11 °C 42.8 °F /  6 °C 30in /  1016.2hPa Sur 3.1mph /  5km/h 5.8mph /  9.3km/h 71% 0in /  0.0mm
07:14 52 °F /  11.1 °C 42.8 °F /  6 °C 30in /  1016.2hPa Sur 3.2mph /  5.1km/h 6mph /  9.7km/h 70.9% 0in /  0.0mm
07:19 52 °F /  11.1 °C 42.4 °F /  5.8 °C 30in /  1016.2hPa SSE 3.6mph /  5.8km/h 6.2mph /  10km/h 70% 0in /  0.0mm
07:24 52 °F /  11.1 °C 42.4 °F /  5.8 °C 30in /  1016.3hPa Sur 3.7mph /  5.9km/h 6mph /  9.7km/h 70% 0in /  0.0mm
07:29 52 °F /  11.1 °C 42.4 °F /  5.8 °C 30in /  1016.3hPa SSE 4mph /  6.4km/h 6mph /  9.7km/h 70% 0in /  0.0mm
07:34 52 °F /  11.1 °C 42.1 °F /  5.6 °C 30in /  1016.3hPa Sur 4mph /  6.4km/h 6.9mph /  11.1km/h 69% 0in /  0.0mm
07:39 51.8 °F /  11 °C 41.5 °F /  5.3 °C 30in /  1016.3hPa Sur 3.6mph /  5.8km/h 7mph /  11.3km/h 68% 0in /  0.0mm
07:44 51.6 °F /  10.9 °C 40.8 °F /  4.9 °C 30in /  1016.3hPa Sur 3.7mph /  5.9km/h 6mph /  9.7km/h 66.5% 0in /  0.0mm
07:49 51.6 °F /  10.9 °C 40.3 °F /  4.6 °C 30in /  1016.3hPa SSO 4mph /  6.4km/h 6mph /  9.7km/h 65.3% 0in /  0.0mm
07:54 51.6 °F /  10.9 °C 40.3 °F /  4.6 °C 30in /  1016.4hPa SSO 3.9mph /  6.3km/h 5mph /  8km/h 64.9% 0in /  0.0mm
07:59 51.8 °F /  11 °C 39.9 °F /  4.4 °C 30in /  1016.4hPa SSO 3.1mph /  5km/h 5.2mph /  8.4km/h 64% 0in /  0.0mm
08:04 51.8 °F /  11 °C 39.9 °F /  4.4 °C 30in /  1016.4hPa SSO 3.1mph /  5km/h 5.2mph /  8.4km/h 63.6% 0in /  0.0mm
08:09 51.6 °F /  10.9 °C 39.4 °F /  4.1 °C 30in /  1016.4hPa Sur 3.1mph /  5km/h 5.2mph /  8.4km/h 62.5% 0in /  0.0mm
08:14 51.6 °F /  10.9 °C 39 °F /  3.9 °C 30in /  1016.3hPa Sur 3.1mph /  5km/h 5.4mph /  8.7km/h 62% 0in /  0.0mm
08:19 51.6 °F /  10.9 °C 39 °F /  3.9 °C 30in /  1016.3hPa Sur 3.1mph /  5km/h 6mph /  9.7km/h 62% 0in /  0.0mm
08:24 51.4 °F /  10.8 °C 38.8 °F /  3.8 °C 30in /  1016.4hPa Sur 3.2mph /  5.1km/h 6.2mph /  10km/h 62.2% 0in /  0.0mm
08:29 51.3 °F /  10.7 °C 39 °F /  3.9 °C 30in /  1016.4hPa Sur 4mph /  6.4km/h 6.2mph /  10km/h 63% 0in /  0.0mm
08:34 51.3 °F /  10.7 °C 38.8 °F /  3.8 °C 30in /  1016.4hPa SSE 4mph /  6.5km/h 7.4mph /  11.9km/h 62.3% 0in /  0.0mm
08:39 51.1 °F /  10.6 °C 38.5 °F /  3.6 °C 30in /  1016.4hPa Sur 4.3mph /  6.9km/h 7.4mph /  11.9km/h 62% 0in /  0.0mm
08:44 51.1 °F /  10.6 °C 38.5 °F /  3.6 °C 30in /  1016.4hPa Sur 4.3mph /  6.9km/h 7.4mph /  11.9km/h 62% 0in /  0.0mm
08:49 50.9 °F /  10.5 °C 38.1 °F /  3.4 °C 30in /  1016.4hPa Sur 4.3mph /  6.9km/h 8.1mph /  13km/h 61.4% 0in /  0.0mm
08:54 50.9 °F /  10.5 °C 37.8 °F /  3.2 °C 30in /  1016.5hPa SSO 4.4mph /  7.1km/h 8.1mph /  13km/h 60.9% 0in /  0.0mm
08:59 51.1 °F /  10.6 °C 37.6 °F /  3.1 °C 30in /  1016.5hPa Sur 5.2mph /  8.4km/h 7mph /  11.3km/h 60% 0in /  0.0mm
09:04 51.3 °F /  10.7 °C 37.4 °F /  3 °C 30in /  1016.5hPa Sur 5.2mph /  8.3km/h 7mph /  11.3km/h 59.2% 0in /  0.0mm
09:09 51.4 °F /  10.8 °C 37.6 °F /  3.1 °C 30in /  1016.7hPa Sur 4.7mph /  7.6km/h 7mph /  11.3km/h 58.7% 0in /  0.0mm
09:14 51.8 °F /  11 °C 37.6 °F /  3.1 °C 30in /  1016.7hPa SSO 4.7mph /  7.5km/h 6.2mph /  10km/h 58.1% 0in /  0.0mm
09:19 52.2 °F /  11.2 °C 37.2 °F /  2.9 °C 30in /  1016.7hPa SSO 4mph /  6.5km/h 8.1mph /  13km/h 56.7% 0in /  0.0mm
09:24 52.3 °F /  11.3 °C 36.5 °F /  2.5 °C 30in /  1017.0hPa SO 4.1mph /  6.6km/h 8.1mph /  13km/h 54.7% 0in /  0.0mm
09:29 52.5 °F /  11.4 °C 36.1 °F /  2.3 °C 30in /  1017.0hPa SO 4.7mph /  7.6km/h 8.5mph /  13.7km/h 53.4% 0in /  0.0mm
09:34 52.9 °F /  11.6 °C 35.8 °F /  2.1 °C 30in /  1017.0hPa SO 4.8mph /  7.7km/h 9.2mph /  14.8km/h 52.1% 0in /  0.0mm
09:39 53.1 °F /  11.7 °C 35.2 °F /  1.8 °C 30in /  1017.2hPa SO 5.4mph /  8.7km/h 10.7mph /  17.2km/h 50.8% 0in /  0.0mm
09:44 53.2 °F /  11.8 °C 35.4 °F /  1.9 °C 30in /  1017.2hPa SO 5.4mph /  8.7km/h 11mph /  17.7km/h 50.9% 0in /  0.0mm
09:49 53.4 °F /  11.9 °C 35.6 °F /  2 °C 30in /  1017.2hPa SO 5.2mph /  8.4km/h 8.1mph /  13km/h 51% 0in /  0.0mm
09:54 53.6 °F /  12 °C 36 °F /  2.2 °C 30in /  1017.3hPa SO 5.2mph /  8.3km/h 8.5mph /  13.7km/h 51% 0in /  0.0mm
09:59 54 °F /  12.2 °C 36.3 °F /  2.4 °C 30in /  1017.3hPa SO 4.7mph /  7.6km/h 9mph /  14.5km/h 51% 0in /  0.0mm
10:04 54.3 °F /  12.4 °C 36.7 °F /  2.6 °C 30in /  1017.3hPa SSO 4.7mph /  7.5km/h 8.1mph /  13km/h 51% 0in /  0.0mm
10:09 54.7 °F /  12.6 °C 36.9 °F /  2.7 °C 30.1in /  1017.5hPa SSO 4.3mph /  6.9km/h 8mph /  12.9km/h 51% 0in /  0.0mm
10:14 54.7 °F /  12.6 °C 36.9 °F /  2.7 °C 30.1in /  1017.5hPa Sur 4.3mph /  7km/h 7.4mph /  11.9km/h 51% 0in /  0.0mm
10:19 54.7 °F /  12.6 °C 37 °F /  2.8 °C 30.1in /  1017.5hPa Sur 4.7mph /  7.6km/h 8.1mph /  13km/h 51.1% 0in /  0.0mm
10:24 54.9 °F /  12.7 °C 37.2 °F /  2.9 °C 30.1in /  1017.5hPa SSO 4.8mph /  7.7km/h 8mph /  12.9km/h 51.4% 0in /  0.0mm
10:29 55 °F /  12.8 °C 37.2 °F /  2.9 °C 30.1in /  1017.5hPa SSO 5.4mph /  8.7km/h 8.5mph /  13.7km/h 51% 0in /  0.0mm
10:34 55.6 °F /  13.1 °C 37.4 °F /  3 °C 30.1in /  1017.5hPa Sur 5.4mph /  8.7km/h 9mph /  14.5km/h 50.6% 0in /  0.0mm
10:39 55.8 °F /  13.2 °C 37 °F /  2.8 °C 30.1in /  1017.5hPa SSO 5.2mph /  8.4km/h 8mph /  12.9km/h 49.4% 0in /  0.0mm
10:44 56.1 °F /  13.4 °C 36.7 °F /  2.6 °C 30.1in /  1017.5hPa SO 5.1mph /  8.2km/h 8.1mph /  13km/h 48.1% 0in /  0.0mm
10:49 56.3 °F /  13.5 °C 36.7 °F /  2.6 °C 30.1in /  1017.5hPa SO 4.3mph /  6.9km/h 8.1mph /  13km/h 47.4% 0in /  0.0mm
10:54 56.7 °F /  13.7 °C 36.5 °F /  2.5 °C 30.1in /  1017.5hPa SO 4.3mph /  6.9km/h 8.1mph /  13km/h 47% 0in /  0.0mm
10:59 56.8 °F /  13.8 °C 36.5 °F /  2.5 °C 30.1in /  1017.5hPa SSO 4.3mph /  6.9km/h 9.2mph /  14.8km/h 46.3% 0in /  0.0mm
11:04 57.2 °F /  14 °C 36.5 °F /  2.5 °C 30.1in /  1017.5hPa SO 4.3mph /  7km/h 9mph /  14.5km/h 46% 0in /  0.0mm
Murcia-Puente Tocinos, España
Compliments of Weather Underground - 2 mb

La estación de MeteoMurcia.com, publica sus datos en los siguientes proyectos:

Weather Underground PWS IMURCIAP2 Meteoclimatic www.awekas.at

W3Counter
Web Analytics